sensor_id;sensor_type;location;lat;lon;timestamp;P1;durP1;ratioP1;P2;durP2;ratioP2
10605;SDS011;5350;42.698;23.148;2022-10-16T08:28:13;5.87;;;3.80;;
10605;SDS011;5350;42.698;23.148;2022-10-16T08:30:40;8.07;;;3.80;;
10605;SDS011;5350;42.698;23.148;2022-10-16T08:33:07;11.60;;;3.97;;
10605;SDS011;5350;42.698;23.148;2022-10-16T08:35:34;6.65;;;3.78;;
10605;SDS011;5350;42.698;23.148;2022-10-16T08:38:02;7.03;;;3.40;;
10605;SDS011;5350;42.698;23.148;2022-10-16T08:40:30;5.75;;;3.80;;
10605;SDS011;5350;42.698;23.148;2022-10-16T08:43:08;6.30;;;3.75;;
10605;SDS011;5350;42.698;23.148;2022-10-16T08:48:11;11.18;;;4.05;;
10605;SDS011;5350;42.698;23.148;2022-10-16T09:05:47;4.55;;;3.97;;
10605;SDS011;5350;42.698;23.148;2022-10-16T09:08:26;7.88;;;4.63;;
10605;SDS011;5350;42.698;23.148;2022-10-16T09:10:59;4.90;;;4.20;;
10605;SDS011;5350;42.698;23.148;2022-10-16T09:13:32;4.10;;;3.55;;
10605;SDS011;5350;42.698;23.148;2022-10-16T09:16:10;4.13;;;2.88;;
10605;SDS011;5350;42.698;23.148;2022-10-16T09:18:47;5.05;;;3.60;;
10605;SDS011;5350;42.698;23.148;2022-10-16T09:21:21;3.28;;;2.90;;
10605;SDS011;5350;42.698;23.148;2022-10-16T09:23:51;4.13;;;3.45;;
10605;SDS011;5350;42.698;23.148;2022-10-16T09:26:20;4.00;;;3.60;;
10605;SDS011;5350;42.698;23.148;2022-10-16T09:28:47;9.75;;;4.18;;
10605;SDS011;5350;42.698;23.148;2022-10-16T09:31:15;4.30;;;3.80;;
10605;SDS011;5350;42.698;23.148;2022-10-16T09:33:47;3.83;;;3.40;;
10605;SDS011;5350;42.698;23.148;2022-10-16T09:36:18;5.60;;;3.25;;
10605;SDS011;5350;42.698;23.148;2022-10-16T09:38:50;4.10;;;3.78;;
10605;SDS011;5350;42.698;23.148;2022-10-16T09:41:27;4.97;;;3.75;;
10605;SDS011;5350;42.698;23.148;2022-10-16T09:43:54;3.45;;;3.13;;
10605;SDS011;5350;42.698;23.148;2022-10-16T09:46:27;4.03;;;3.08;;
10605;SDS011;5350;42.698;23.148;2022-10-16T09:48:56;5.25;;;2.75;;
10605;SDS011;5350;42.698;23.148;2022-10-16T09:51:26;2.75;;;2.25;;
10605;SDS011;5350;42.698;23.148;2022-10-16T09:53:56;4.00;;;3.03;;
10605;SDS011;5350;42.698;23.148;2022-10-16T09:56:25;5.13;;;3.00;;
10605;SDS011;5350;42.698;23.148;2022-10-16T09:58:54;3.35;;;3.05;;
10605;SDS011;5350;42.698;23.148;2022-10-16T10:01:22;4.68;;;3.10;;
10605;SDS011;5350;42.698;23.148;2022-10-16T10:03:55;3.30;;;3.00;;
10605;SDS011;5350;42.698;23.148;2022-10-16T10:06:29;4.15;;;2.92;;
10605;SDS011;5350;42.698;23.148;2022-10-16T10:09:00;3.60;;;2.60;;
10605;SDS011;5350;42.698;23.148;2022-10-16T10:11:38;3.35;;;3.05;;
10605;SDS011;5350;42.698;23.148;2022-10-16T10:14:20;4.82;;;3.30;;
10605;SDS011;5350;42.698;23.148;2022-10-16T10:16:49;3.28;;;2.97;;
10605;SDS011;5350;42.698;23.148;2022-10-16T10:19:18;4.00;;;2.40;;
10605;SDS011;5350;42.698;23.148;2022-10-16T10:21:48;5.00;;;2.50;;
10605;SDS011;5350;42.698;23.148;2022-10-16T10:24:16;7.47;;;3.10;;
10605;SDS011;5350;42.698;23.148;2022-10-16T10:26:47;3.72;;;2.85;;
10605;SDS011;5350;42.698;23.148;2022-10-16T10:29:21;5.50;;;2.90;;
10605;SDS011;5350;42.698;23.148;2022-10-16T10:31:57;4.18;;;2.83;;
10605;SDS011;5350;42.698;23.148;2022-10-16T10:34:35;3.50;;;3.17;;
10605;SDS011;5350;42.698;23.148;2022-10-16T10:37:16;5.00;;;2.95;;
10605;SDS011;5350;42.698;23.148;2022-10-16T10:39:58;4.63;;;2.70;;
10605;SDS011;5350;42.698;23.148;2022-10-16T10:42:34;2.85;;;2.50;;
10605;SDS011;5350;42.698;23.148;2022-10-16T10:45:16;2.50;;;2.30;;
10605;SDS011;5350;42.698;23.148;2022-10-16T10:47:56;3.13;;;2.40;;
10605;SDS011;5350;42.698;23.148;2022-10-16T10:50:37;3.97;;;2.70;;
10605;SDS011;5350;42.698;23.148;2022-10-16T10:53:11;3.25;;;2.65;;
10605;SDS011;5350;42.698;23.148;2022-10-16T10:55:48;3.05;;;2.53;;
10605;SDS011;5350;42.698;23.148;2022-10-16T10:58:27;5.18;;;2.70;;
10605;SDS011;5350;42.698;23.148;2022-10-16T11:01:07;3.58;;;2.55;;
10605;SDS011;5350;42.698;23.148;2022-10-16T11:06:28;6.07;;;2.63;;
10605;SDS011;5350;42.698;23.148;2022-10-16T11:09:02;3.92;;;2.42;;
10605;SDS011;5350;42.698;23.148;2022-10-16T11:11:37;2.80;;;2.35;;
10605;SDS011;5350;42.698;23.148;2022-10-16T11:14:11;4.53;;;3.13;;
10605;SDS011;5350;42.698;23.148;2022-10-16T11:16:43;3.05;;;2.13;;
10605;SDS011;5350;42.698;23.148;2022-10-16T11:19:18;2.95;;;2.30;;
10605;SDS011;5350;42.698;23.148;2022-10-16T11:21:54;5.32;;;2.90;;
10605;SDS011;5350;42.698;23.148;2022-10-16T11:24:30;5.75;;;2.70;;
10605;SDS011;5350;42.698;23.148;2022-10-16T11:27:04;7.75;;;3.53;;
10605;SDS011;5350;42.698;23.148;2022-10-16T11:29:35;6.05;;;3.00;;
10605;SDS011;5350;42.698;23.148;2022-10-16T11:32:12;2.83;;;2.33;;
10605;SDS011;5350;42.698;23.148;2022-10-16T11:34:48;4.03;;;2.67;;
10605;SDS011;5350;42.698;23.148;2022-10-16T11:37:18;2.60;;;2.40;;
10605;SDS011;5350;42.698;23.148;2022-10-16T11:39:51;2.80;;;2.50;;
10605;SDS011;5350;42.698;23.148;2022-10-16T11:42:22;4.63;;;2.80;;
10605;SDS011;5350;42.698;23.148;2022-10-16T11:44:57;4.80;;;2.35;;
10605;SDS011;5350;42.698;23.148;2022-10-16T11:47:31;3.67;;;2.28;;
10605;SDS011;5350;42.698;23.148;2022-10-16T11:50:01;4.72;;;2.95;;
10605;SDS011;5350;42.698;23.148;2022-10-16T11:52:33;2.53;;;2.30;;
10605;SDS011;5350;42.698;23.148;2022-10-16T11:55:09;3.95;;;2.33;;
10605;SDS011;5350;42.698;23.148;2022-10-16T11:57:43;3.10;;;2.80;;
10605;SDS011;5350;42.698;23.148;2022-10-16T12:00:18;3.28;;;2.20;;
10605;SDS011;5350;42.698;23.148;2022-10-16T12:02:52;2.33;;;2.13;;
10605;SDS011;5350;42.698;23.148;2022-10-16T12:05:28;2.95;;;2.20;;
10605;SDS011;5350;42.698;23.148;2022-10-16T12:08:08;2.65;;;2.20;;
10605;SDS011;5350;42.698;23.148;2022-10-16T12:10:38;3.47;;;2.30;;
10605;SDS011;5350;42.698;23.148;2022-10-16T12:16:03;2.58;;;2.13;;
10605;SDS011;5350;42.698;23.148;2022-10-16T12:18:31;7.20;;;4.57;;
10605;SDS011;5350;42.698;23.148;2022-10-16T12:20:59;46.85;;;24.17;;
10605;SDS011;5350;42.698;23.148;2022-10-16T12:23:30;10.80;;;5.78;;
10605;SDS011;5350;42.698;23.148;2022-10-16T12:25:59;4.28;;;2.63;;
10605;SDS011;5350;42.698;23.148;2022-10-16T12:28:28;5.00;;;3.85;;
10605;SDS011;5350;42.698;23.148;2022-10-16T12:30:56;2.65;;;1.98;;
10605;SDS011;5350;42.698;23.148;2022-10-16T12:33:25;10.45;;;6.18;;
10605;SDS011;5350;42.698;23.148;2022-10-16T12:35:54;13.52;;;7.82;;
10605;SDS011;5350;42.698;23.148;2022-10-16T12:38:24;22.20;;;11.45;;
10605;SDS011;5350;42.698;23.148;2022-10-16T12:41:25;5.78;;;3.38;;
10605;SDS011;5350;42.698;23.148;2022-10-16T12:43:53;7.13;;;4.63;;
10605;SDS011;5350;42.698;23.148;2022-10-16T12:46:33;7.38;;;5.53;;
10605;SDS011;5350;42.698;23.148;2022-10-16T12:49:20;9.23;;;4.47;;
10605;SDS011;5350;42.698;23.148;2022-10-16T12:51:50;4.95;;;2.20;;
10605;SDS011;5350;42.698;23.148;2022-10-16T12:54:19;2.72;;;2.10;;
10605;SDS011;5350;42.698;23.148;2022-10-16T12:56:56;2.17;;;1.80;;
10605;SDS011;5350;42.698;23.148;2022-10-16T12:59:37;2.22;;;2.03;;
10605;SDS011;5350;42.698;23.148;2022-10-16T13:02:26;3.72;;;1.90;;
10605;SDS011;5350;42.698;23.148;2022-10-16T13:05:12;4.05;;;1.80;;
10605;SDS011;5350;42.698;23.148;2022-10-16T13:07:53;5.03;;;2.10;;
10605;SDS011;5350;42.698;23.148;2022-10-16T13:10:28;2.20;;;2.00;;
10605;SDS011;5350;42.698;23.148;2022-10-16T13:13:15;1.90;;;1.73;;
10605;SDS011;5350;42.698;23.148;2022-10-16T13:16:01;3.70;;;2.08;;
10605;SDS011;5350;42.698;23.148;2022-10-16T13:18:38;3.53;;;1.88;;
10605;SDS011;5350;42.698;23.148;2022-10-16T13:21:17;1.70;;;1.60;;
10605;SDS011;5350;42.698;23.148;2022-10-16T13:23:53;2.30;;;2.10;;
10605;SDS011;5350;42.698;23.148;2022-10-16T13:26:31;2.08;;;1.88;;
10605;SDS011;5350;42.698;23.148;2022-10-16T13:29:07;3.30;;;2.28;;
10605;SDS011;5350;42.698;23.148;2022-10-16T13:31:36;2.83;;;2.00;;
10605;SDS011;5350;42.698;23.148;2022-10-16T13:34:04;2.90;;;2.15;;
10605;SDS011;5350;42.698;23.148;2022-10-16T13:36:34;3.13;;;1.70;;
10605;SDS011;5350;42.698;23.148;2022-10-16T13:39:10;3.35;;;1.80;;
10605;SDS011;5350;42.698;23.148;2022-10-16T13:41:39;1.45;;;1.35;;
10605;SDS011;5350;42.698;23.148;2022-10-16T13:44:11;1.48;;;1.38;;
10605;SDS011;5350;42.698;23.148;2022-10-16T13:46:41;1.80;;;1.63;;
10605;SDS011;5350;42.698;23.148;2022-10-16T13:49:12;2.92;;;1.80;;
10605;SDS011;5350;42.698;23.148;2022-10-16T13:51:40;3.95;;;2.08;;
10605;SDS011;5350;42.698;23.148;2022-10-16T13:54:07;2.70;;;1.58;;
10605;SDS011;5350;42.698;23.148;2022-10-16T13:56:36;9.32;;;6.80;;
10605;SDS011;5350;42.698;23.148;2022-10-16T13:59:05;5.78;;;5.28;;
10605;SDS011;5350;42.698;23.148;2022-10-16T14:01:49;2.15;;;1.92;;
10605;SDS011;5350;42.698;23.148;2022-10-16T14:04:20;1.67;;;1.48;;
10605;SDS011;5350;42.698;23.148;2022-10-16T14:06:49;5.93;;;3.10;;
10605;SDS011;5350;42.698;23.148;2022-10-16T14:09:20;6.85;;;2.88;;
10605;SDS011;5350;42.698;23.148;2022-10-16T14:11:50;4.03;;;2.38;;
10605;SDS011;5350;42.698;23.148;2022-10-16T14:14:19;6.20;;;2.65;;
10605;SDS011;5350;42.698;23.148;2022-10-16T14:16:46;6.20;;;3.03;;
10605;SDS011;5350;42.698;23.148;2022-10-16T14:19:17;2.30;;;2.10;;
10605;SDS011;5350;42.698;23.148;2022-10-16T14:21:46;3.30;;;2.35;;
10605;SDS011;5350;42.698;23.148;2022-10-16T14:24:19;2.97;;;2.28;;
10605;SDS011;5350;42.698;23.148;2022-10-16T14:26:52;4.85;;;2.92;;
10605;SDS011;5350;42.698;23.148;2022-10-16T14:29:20;5.90;;;2.13;;
10605;SDS011;5350;42.698;23.148;2022-10-16T14:31:53;3.13;;;2.00;;
10605;SDS011;5350;42.698;23.148;2022-10-16T14:34:29;3.30;;;2.67;;
10605;SDS011;5350;42.698;23.148;2022-10-16T14:36:58;4.95;;;2.25;;
10605;SDS011;5350;42.698;23.148;2022-10-16T14:39:29;2.72;;;1.80;;
10605;SDS011;5350;42.698;23.148;2022-10-16T14:41:56;1.95;;;1.85;;
10605;SDS011;5350;42.698;23.148;2022-10-16T14:44:26;2.00;;;1.60;;
10605;SDS011;5350;42.698;23.148;2022-10-16T14:46:55;2.85;;;1.75;;
10605;SDS011;5350;42.698;23.148;2022-10-16T14:49:24;4.20;;;1.60;;
10605;SDS011;5350;42.698;23.148;2022-10-16T14:51:54;2.58;;;1.60;;
10605;SDS011;5350;42.698;23.148;2022-10-16T14:54:21;2.88;;;2.40;;
10605;SDS011;5350;42.698;23.148;2022-10-16T14:56:49;4.07;;;2.35;;
10605;SDS011;5350;42.698;23.148;2022-10-16T14:59:19;3.03;;;2.05;;
10605;SDS011;5350;42.698;23.148;2022-10-16T15:01:51;2.55;;;2.10;;
10605;SDS011;5350;42.698;23.148;2022-10-16T15:04:18;2.30;;;2.10;;
10605;SDS011;5350;42.698;23.148;2022-10-16T15:06:45;6.38;;;2.13;;
10605;SDS011;5350;42.698;23.148;2022-10-16T15:09:13;3.60;;;1.83;;
10605;SDS011;5350;42.698;23.148;2022-10-16T15:11:40;2.83;;;2.25;;
10605;SDS011;5350;42.698;23.148;2022-10-16T15:14:08;5.03;;;2.65;;
10605;SDS011;5350;42.698;23.148;2022-10-16T15:16:37;3.60;;;2.72;;
10605;SDS011;5350;42.698;23.148;2022-10-16T15:19:04;2.75;;;2.50;;
10605;SDS011;5350;42.698;23.148;2022-10-16T15:21:31;8.95;;;2.83;;
10605;SDS011;5350;42.698;23.148;2022-10-16T15:23:59;3.78;;;3.17;;
10605;SDS011;5350;42.698;23.148;2022-10-16T15:26:28;6.10;;;3.65;;
10605;SDS011;5350;42.698;23.148;2022-10-16T15:28:55;6.90;;;4.25;;
10605;SDS011;5350;42.698;23.148;2022-10-16T15:31:22;4.15;;;2.80;;
10605;SDS011;5350;42.698;23.148;2022-10-16T15:33:50;16.13;;;9.85;;
10605;SDS011;5350;42.698;23.148;2022-10-16T15:36:24;11.25;;;5.15;;
10605;SDS011;5350;42.698;23.148;2022-10-16T15:38:52;6.43;;;4.45;;
10605;SDS011;5350;42.698;23.148;2022-10-16T15:41:18;4.68;;;2.67;;
10605;SDS011;5350;42.698;23.148;2022-10-16T15:43:48;5.93;;;2.20;;
10605;SDS011;5350;42.698;23.148;2022-10-16T15:46:17;3.92;;;2.85;;
10605;SDS011;5350;42.698;23.148;2022-10-16T15:48:45;4.30;;;2.10;;
10605;SDS011;5350;42.698;23.148;2022-10-16T15:51:12;5.60;;;2.47;;
10605;SDS011;5350;42.698;23.148;2022-10-16T15:53:39;4.32;;;2.20;;
10605;SDS011;5350;42.698;23.148;2022-10-16T15:56:07;4.55;;;2.95;;
10605;SDS011;5350;42.698;23.148;2022-10-16T15:58:35;8.70;;;3.28;;
10605;SDS011;5350;42.698;23.148;2022-10-16T16:01:03;5.22;;;3.47;;
10605;SDS011;5350;42.698;23.148;2022-10-16T16:03:30;4.57;;;3.53;;
10605;SDS011;5350;42.698;23.148;2022-10-16T16:05:57;5.07;;;3.92;;
10605;SDS011;5350;42.698;23.148;2022-10-16T16:08:24;8.35;;;5.30;;
10605;SDS011;5350;42.698;23.148;2022-10-16T16:10:57;8.88;;;4.90;;
10605;SDS011;5350;42.698;23.148;2022-10-16T16:13:24;7.93;;;5.10;;
10605;SDS011;5350;42.698;23.148;2022-10-16T16:15:51;8.57;;;5.53;;
10605;SDS011;5350;42.698;23.148;2022-10-16T16:18:19;7.43;;;3.78;;
10605;SDS011;5350;42.698;23.148;2022-10-16T16:20:47;6.63;;;3.85;;
10605;SDS011;5350;42.698;23.148;2022-10-16T16:23:14;6.22;;;4.00;;
10605;SDS011;5350;42.698;23.148;2022-10-16T16:25:41;5.97;;;4.20;;
10605;SDS011;5350;42.698;23.148;2022-10-16T16:28:07;4.35;;;3.70;;
10605;SDS011;5350;42.698;23.148;2022-10-16T16:30:35;4.82;;;4.00;;
10605;SDS011;5350;42.698;23.148;2022-10-16T16:33:02;7.35;;;4.15;;
10605;SDS011;5350;42.698;23.148;2022-10-16T16:35:30;17.45;;;13.40;;
10605;SDS011;5350;42.698;23.148;2022-10-16T16:37:57;45.63;;;40.72;;
10605;SDS011;5350;42.698;23.148;2022-10-16T16:40:24;23.02;;;18.20;;
10605;SDS011;5350;42.698;23.148;2022-10-16T16:42:50;25.33;;;18.67;;
10605;SDS011;5350;42.698;23.148;2022-10-16T16:45:17;18.92;;;11.60;;
10605;SDS011;5350;42.698;23.148;2022-10-16T16:47:44;19.27;;;12.10;;
10605;SDS011;5350;42.698;23.148;2022-10-16T16:50:11;12.80;;;8.33;;
10605;SDS011;5350;42.698;23.148;2022-10-16T16:52:39;12.57;;;8.00;;
10605;SDS011;5350;42.698;23.148;2022-10-16T16:55:06;9.87;;;6.07;;
10605;SDS011;5350;42.698;23.148;2022-10-16T16:57:33;8.73;;;6.17;;
10605;SDS011;5350;42.698;23.148;2022-10-16T16:59:59;9.60;;;4.90;;
10605;SDS011;5350;42.698;23.148;2022-10-16T17:02:26;6.27;;;4.87;;
10605;SDS011;5350;42.698;23.148;2022-10-16T17:04:53;8.50;;;5.20;;
10605;SDS011;5350;42.698;23.148;2022-10-16T17:07:21;6.43;;;5.23;;
10605;SDS011;5350;42.698;23.148;2022-10-16T17:09:51;6.87;;;4.33;;
10605;SDS011;5350;42.698;23.148;2022-10-16T17:12:18;8.13;;;4.90;;
10605;SDS011;5350;42.698;23.148;2022-10-16T17:14:44;8.77;;;5.57;;
10605;SDS011;5350;42.698;23.148;2022-10-16T17:17:11;15.90;;;9.90;;
10605;SDS011;5350;42.698;23.148;2022-10-16T17:19:38;4.93;;;4.33;;
10605;SDS011;5350;42.698;23.148;2022-10-16T17:22:04;8.03;;;5.93;;
10605;SDS011;5350;42.698;23.148;2022-10-16T17:24:31;8.30;;;5.70;;
10605;SDS011;5350;42.698;23.148;2022-10-16T17:26:59;15.53;;;8.63;;
10605;SDS011;5350;42.698;23.148;2022-10-16T17:29:26;8.70;;;5.93;;
10605;SDS011;5350;42.698;23.148;2022-10-16T17:31:52;7.77;;;5.53;;
10605;SDS011;5350;42.698;23.148;2022-10-16T17:34:23;6.40;;;4.90;;
10605;SDS011;5350;42.698;23.148;2022-10-16T17:36:50;7.37;;;5.00;;
10605;SDS011;5350;42.698;23.148;2022-10-16T17:39:17;10.57;;;5.00;;
10605;SDS011;5350;42.698;23.148;2022-10-16T17:41:44;8.40;;;5.17;;
10605;SDS011;5350;42.698;23.148;2022-10-16T17:44:13;7.00;;;4.60;;
10605;SDS011;5350;42.698;23.148;2022-10-16T17:46:44;6.20;;;4.80;;
10605;SDS011;5350;42.698;23.148;2022-10-16T17:49:11;8.37;;;4.83;;
10605;SDS011;5350;42.698;23.148;2022-10-16T17:51:38;8.73;;;5.80;;
10605;SDS011;5350;42.698;23.148;2022-10-16T17:54:05;10.17;;;8.13;;
10605;SDS011;5350;42.698;23.148;2022-10-16T17:56:32;18.13;;;14.07;;
10605;SDS011;5350;42.698;23.148;2022-10-16T17:59:00;16.50;;;10.23;;
10605;SDS011;5350;42.698;23.148;2022-10-16T18:01:29;12.10;;;8.87;;
10605;SDS011;5350;42.698;23.148;2022-10-16T18:03:57;16.30;;;11.70;;
10605;SDS011;5350;42.698;23.148;2022-10-16T18:06:25;17.37;;;9.27;;
10605;SDS011;5350;42.698;23.148;2022-10-16T18:08:53;16.43;;;10.93;;
10605;SDS011;5350;42.698;23.148;2022-10-16T18:11:22;11.87;;;8.77;;
10605;SDS011;5350;42.698;23.148;2022-10-16T18:13:50;10.50;;;7.87;;
10605;SDS011;5350;42.698;23.148;2022-10-16T18:16:17;13.30;;;7.60;;
10605;SDS011;5350;42.698;23.148;2022-10-16T18:18:45;12.53;;;10.20;;
10605;SDS011;5350;42.698;23.148;2022-10-16T18:21:13;23.43;;;18.57;;
10605;SDS011;5350;42.698;23.148;2022-10-16T18:23:41;7.30;;;6.37;;
10605;SDS011;5350;42.698;23.148;2022-10-16T18:26:09;9.73;;;6.37;;
10605;SDS011;5350;42.698;23.148;2022-10-16T18:28:36;7.40;;;6.33;;
10605;SDS011;5350;42.698;23.148;2022-10-16T18:31:05;7.83;;;6.80;;
10605;SDS011;5350;42.698;23.148;2022-10-16T18:33:33;17.70;;;12.07;;
10605;SDS011;5350;42.698;23.148;2022-10-16T18:36:02;15.80;;;12.57;;
10605;SDS011;5350;42.698;23.148;2022-10-16T18:38:31;13.40;;;9.80;;
10605;SDS011;5350;42.698;23.148;2022-10-16T18:40:58;36.30;;;24.60;;
10605;SDS011;5350;42.698;23.148;2022-10-16T18:43:26;25.30;;;17.53;;
10605;SDS011;5350;42.698;23.148;2022-10-16T18:45:54;15.77;;;11.87;;
10605;SDS011;5350;42.698;23.148;2022-10-16T18:48:21;19.80;;;13.20;;
10605;SDS011;5350;42.698;23.148;2022-10-16T18:50:47;16.50;;;10.97;;
10605;SDS011;5350;42.698;23.148;2022-10-16T18:53:16;12.63;;;8.93;;
10605;SDS011;5350;42.698;23.148;2022-10-16T18:55:42;13.17;;;8.90;;
10605;SDS011;5350;42.698;23.148;2022-10-16T18:58:09;11.67;;;8.23;;
10605;SDS011;5350;42.698;23.148;2022-10-16T19:00:35;11.70;;;7.13;;
10605;SDS011;5350;42.698;23.148;2022-10-16T19:03:02;11.00;;;8.17;;
10605;SDS011;5350;42.698;23.148;2022-10-16T19:05:29;9.57;;;6.63;;
10605;SDS011;5350;42.698;23.148;2022-10-16T19:07:58;9.87;;;6.47;;
10605;SDS011;5350;42.698;23.148;2022-10-16T19:10:26;10.83;;;6.93;;
10605;SDS011;5350;42.698;23.148;2022-10-16T19:12:53;11.60;;;7.90;;
10605;SDS011;5350;42.698;23.148;2022-10-16T19:15:20;11.57;;;7.83;;
10605;SDS011;5350;42.698;23.148;2022-10-16T19:17:47;14.37;;;8.23;;
10605;SDS011;5350;42.698;23.148;2022-10-16T19:20:14;12.83;;;7.57;;
10605;SDS011;5350;42.698;23.148;2022-10-16T19:22:40;8.17;;;6.60;;
10605;SDS011;5350;42.698;23.148;2022-10-16T19:25:18;11.80;;;7.97;;
10605;SDS011;5350;42.698;23.148;2022-10-16T19:27:48;12.10;;;8.63;;
10605;SDS011;5350;42.698;23.148;2022-10-16T19:30:15;7.10;;;6.13;;
10605;SDS011;5350;42.698;23.148;2022-10-16T19:32:42;6.50;;;5.40;;
10605;SDS011;5350;42.698;23.148;2022-10-16T19:35:10;9.93;;;6.67;;
10605;SDS011;5350;42.698;23.148;2022-10-16T19:37:37;7.47;;;5.33;;
10605;SDS011;5350;42.698;23.148;2022-10-16T19:40:04;8.50;;;5.30;;
10605;SDS011;5350;42.698;23.148;2022-10-16T19:42:32;6.50;;;5.70;;
10605;SDS011;5350;42.698;23.148;2022-10-16T19:45:01;7.33;;;5.47;;
10605;SDS011;5350;42.698;23.148;2022-10-16T19:47:30;18.63;;;12.53;;
10605;SDS011;5350;42.698;23.148;2022-10-16T19:49:56;11.60;;;7.37;;
10605;SDS011;5350;42.698;23.148;2022-10-16T19:52:23;15.27;;;10.90;;
10605;SDS011;5350;42.698;23.148;2022-10-16T19:54:50;6.87;;;5.37;;
10605;SDS011;5350;42.698;23.148;2022-10-16T19:57:21;18.57;;;10.17;;
10605;SDS011;5350;42.698;23.148;2022-10-16T19:59:50;10.57;;;7.87;;
10605;SDS011;5350;42.698;23.148;2022-10-16T20:02:18;21.00;;;14.93;;
10605;SDS011;5350;42.698;23.148;2022-10-16T20:04:45;9.07;;;6.43;;
10605;SDS011;5350;42.698;23.148;2022-10-16T20:07:11;9.43;;;6.70;;
10605;SDS011;5350;42.698;23.148;2022-10-16T20:09:40;12.30;;;6.23;;
10605;SDS011;5350;42.698;23.148;2022-10-16T20:12:06;12.53;;;7.40;;
10605;SDS011;5350;42.698;23.148;2022-10-16T20:14:33;11.47;;;8.50;;
10605;SDS011;5350;42.698;23.148;2022-10-16T20:17:00;7.97;;;6.30;;
10605;SDS011;5350;42.698;23.148;2022-10-16T20:19:28;14.07;;;7.37;;
10605;SDS011;5350;42.698;23.148;2022-10-16T20:21:55;11.83;;;9.70;;
10605;SDS011;5350;42.698;23.148;2022-10-16T20:24:22;11.03;;;7.70;;
10605;SDS011;5350;42.698;23.148;2022-10-16T20:26:48;8.40;;;7.13;;
10605;SDS011;5350;42.698;23.148;2022-10-16T20:29:15;14.37;;;8.90;;
10605;SDS011;5350;42.698;23.148;2022-10-16T20:31:42;10.27;;;6.73;;
10605;SDS011;5350;42.698;23.148;2022-10-16T20:34:10;11.40;;;8.20;;
10605;SDS011;5350;42.698;23.148;2022-10-16T20:36:39;8.47;;;6.47;;
10605;SDS011;5350;42.698;23.148;2022-10-16T20:39:09;7.33;;;6.33;;
10605;SDS011;5350;42.698;23.148;2022-10-16T20:41:37;8.20;;;5.70;;
10605;SDS011;5350;42.698;23.148;2022-10-16T20:44:04;6.67;;;5.20;;
10605;SDS011;5350;42.698;23.148;2022-10-16T20:46:31;7.33;;;5.37;;
10605;SDS011;5350;42.698;23.148;2022-10-16T20:48:58;8.77;;;5.90;;
10605;SDS011;5350;42.698;23.148;2022-10-16T20:51:25;6.53;;;5.90;;
10605;SDS011;5350;42.698;23.148;2022-10-16T20:53:55;7.50;;;6.03;;
10605;SDS011;5350;42.698;23.148;2022-10-16T20:56:23;7.83;;;6.23;;
10605;SDS011;5350;42.698;23.148;2022-10-16T20:58:50;9.43;;;6.23;;
10605;SDS011;5350;42.698;23.148;2022-10-16T21:01:18;9.03;;;5.93;;
10605;SDS011;5350;42.698;23.148;2022-10-16T21:03:48;6.63;;;5.33;;
10605;SDS011;5350;42.698;23.148;2022-10-16T21:06:15;7.47;;;5.57;;
10605;SDS011;5350;42.698;23.148;2022-10-16T21:08:42;6.37;;;5.43;;
10605;SDS011;5350;42.698;23.148;2022-10-16T21:11:11;10.03;;;7.73;;
10605;SDS011;5350;42.698;23.148;2022-10-16T21:13:38;8.67;;;6.30;;
10605;SDS011;5350;42.698;23.148;2022-10-16T21:16:05;9.77;;;6.87;;
10605;SDS011;5350;42.698;23.148;2022-10-16T21:18:32;8.63;;;5.97;;
10605;SDS011;5350;42.698;23.148;2022-10-16T21:20:59;5.80;;;5.10;;
10605;SDS011;5350;42.698;23.148;2022-10-16T21:23:26;6.60;;;5.47;;
10605;SDS011;5350;42.698;23.148;2022-10-16T21:25:52;8.67;;;6.77;;
10605;SDS011;5350;42.698;23.148;2022-10-16T21:28:21;11.73;;;7.23;;
10605;SDS011;5350;42.698;23.148;2022-10-16T21:30:47;20.60;;;10.20;;
10605;SDS011;5350;42.698;23.148;2022-10-16T21:33:14;16.00;;;10.47;;
10605;SDS011;5350;42.698;23.148;2022-10-16T21:35:41;12.77;;;8.60;;
10605;SDS011;5350;42.698;23.148;2022-10-16T21:38:07;10.73;;;7.40;;
10605;SDS011;5350;42.698;23.148;2022-10-16T21:40:34;9.13;;;6.47;;
10605;SDS011;5350;42.698;23.148;2022-10-16T21:43:01;7.30;;;5.90;;
10605;SDS011;5350;42.698;23.148;2022-10-16T21:45:30;7.23;;;5.67;;
10605;SDS011;5350;42.698;23.148;2022-10-16T21:47:59;8.30;;;6.20;;
10605;SDS011;5350;42.698;23.148;2022-10-16T21:50:25;7.90;;;6.00;;
10605;SDS011;5350;42.698;23.148;2022-10-16T21:52:52;8.67;;;6.00;;
10605;SDS011;5350;42.698;23.148;2022-10-16T21:55:19;7.30;;;5.40;;
10605;SDS011;5350;42.698;23.148;2022-10-16T21:57:45;7.97;;;5.87;;
10605;SDS011;5350;42.698;23.148;2022-10-16T22:00:12;7.90;;;5.67;;
10605;SDS011;5350;42.698;23.148;2022-10-16T22:02:41;6.23;;;5.63;;
10605;SDS011;5350;42.698;23.148;2022-10-16T22:05:08;10.63;;;5.47;;
10605;SDS011;5350;42.698;23.148;2022-10-16T22:07:34;7.03;;;5.30;;
10605;SDS011;5350;42.698;23.148;2022-10-16T22:10:01;7.57;;;5.53;;
10605;SDS011;5350;42.698;23.148;2022-10-16T22:12:28;6.03;;;5.20;;
10605;SDS011;5350;42.698;23.148;2022-10-16T22:14:54;7.13;;;5.77;;
10605;SDS011;5350;42.698;23.148;2022-10-16T22:17:21;7.63;;;5.27;;
10605;SDS011;5350;42.698;23.148;2022-10-16T22:19:49;6.60;;;5.97;;
10605;SDS011;5350;42.698;23.148;2022-10-16T22:22:16;7.37;;;5.80;;
10605;SDS011;5350;42.698;23.148;2022-10-16T22:24:43;6.13;;;5.53;;
10605;SDS011;5350;42.698;23.148;2022-10-16T22:27:09;7.33;;;5.30;;
10605;SDS011;5350;42.698;23.148;2022-10-16T22:29:36;7.90;;;5.73;;
10605;SDS011;5350;42.698;23.148;2022-10-16T22:32:03;8.30;;;5.10;;
10605;SDS011;5350;42.698;23.148;2022-10-16T22:34:30;7.63;;;5.10;;
10605;SDS011;5350;42.698;23.148;2022-10-16T22:36:58;7.47;;;5.30;;
10605;SDS011;5350;42.698;23.148;2022-10-16T22:39:24;5.80;;;4.97;;
10605;SDS011;5350;42.698;23.148;2022-10-16T22:41:52;6.90;;;5.07;;
10605;SDS011;5350;42.698;23.148;2022-10-16T22:44:19;6.30;;;5.50;;
10605;SDS011;5350;42.698;23.148;2022-10-16T22:46:45;5.97;;;5.10;;
10605;SDS011;5350;42.698;23.148;2022-10-16T22:49:12;6.63;;;5.23;;
10605;SDS011;5350;42.698;23.148;2022-10-16T22:51:41;6.17;;;5.20;;
10605;SDS011;5350;42.698;23.148;2022-10-16T22:54:09;7.07;;;5.47;;
10605;SDS011;5350;42.698;23.148;2022-10-16T22:56:36;7.03;;;5.53;;
10605;SDS011;5350;42.698;23.148;2022-10-16T22:59:03;10.60;;;5.63;;
10605;SDS011;5350;42.698;23.148;2022-10-16T23:01:32;9.03;;;5.60;;
10605;SDS011;5350;42.698;23.148;2022-10-16T23:04:00;8.00;;;5.53;;
10605;SDS011;5350;42.698;23.148;2022-10-16T23:06:28;10.07;;;6.43;;
10605;SDS011;5350;42.698;23.148;2022-10-16T23:08:56;9.17;;;6.73;;
10605;SDS011;5350;42.698;23.148;2022-10-16T23:11:26;9.40;;;6.30;;
10605;SDS011;5350;42.698;23.148;2022-10-16T23:13:54;8.40;;;6.40;;
10605;SDS011;5350;42.698;23.148;2022-10-16T23:16:21;10.20;;;6.33;;
10605;SDS011;5350;42.698;23.148;2022-10-16T23:18:49;8.97;;;6.10;;
10605;SDS011;5350;42.698;23.148;2022-10-16T23:21:17;7.60;;;6.00;;
10605;SDS011;5350;42.698;23.148;2022-10-16T23:23:46;8.73;;;6.40;;
10605;SDS011;5350;42.698;23.148;2022-10-16T23:26:13;9.73;;;6.60;;
10605;SDS011;5350;42.698;23.148;2022-10-16T23:28:43;7.87;;;6.47;;
10605;SDS011;5350;42.698;23.148;2022-10-16T23:31:10;8.57;;;6.90;;
10605;SDS011;5350;42.698;23.148;2022-10-16T23:33:37;8.97;;;6.53;;
10605;SDS011;5350;42.698;23.148;2022-10-16T23:36:05;31.63;;;19.00;;
10605;SDS011;5350;42.698;23.148;2022-10-16T23:38:33;11.17;;;8.80;;
10605;SDS011;5350;42.698;23.148;2022-10-16T23:41:00;18.43;;;13.30;;
10605;SDS011;5350;42.698;23.148;2022-10-16T23:43:27;19.20;;;13.90;;
10605;SDS011;5350;42.698;23.148;2022-10-16T23:45:55;12.73;;;6.60;;
10605;SDS011;5350;42.698;23.148;2022-10-16T23:48:22;9.57;;;7.67;;